Time;durP1;ratioP1;P1;durP2;ratioP2;P2;SDS_P1;SDS_P2;PMS_P1;PMS_P2;Temp;Humidity;BMP_temperature;BMP_pressure;BME280_temperature;BME280_humidity;BME280_pressure;Samples;Min_cycle;Max_cycle;Signal;HPM_P1;HPM_P2
2021/01/05 00:01:36;;;;;;;25.45;14.25;;;1.30;99.90;;;;;;5048615;28;20032;-69
2021/01/05 00:04:02;;;;;;;27.40;14.90;;;1.30;99.90;;;;;;5043593;28;20026;-69
2021/01/05 00:06:28;;;;;;;27.30;15.50;;;1.30;99.90;;;;;;5036017;28;20052;-69
2021/01/05 00:08:53;;;;;;;25.35;13.77;;;1.30;99.90;;;;;;5036650;28;20030;-69
2021/01/05 00:11:19;;;;;;;25.83;14.25;;;1.30;99.90;;;;;;5037659;28;20033;-68
2021/01/05 00:13:44;;;;;;;25.92;13.95;;;1.30;99.90;;;;;;5041436;28;20043;-69
2021/01/05 00:16:10;;;;;;;27.05;15.02;;;1.40;99.90;;;;;;5041940;28;20022;-69
2021/01/05 00:18:36;;;;;;;27.27;14.75;;;1.30;99.90;;;;;;5042528;28;20031;-68
2021/01/05 00:21:02;;;;;;;25.98;13.75;;;1.30;99.90;;;;;;5042915;28;20014;-68
2021/01/05 00:23:27;;;;;;;25.60;14.65;;;1.30;99.90;;;;;;5037247;28;20084;-68
2021/01/05 00:25:53;;;;;;;24.73;13.88;;;1.40;99.90;;;;;;5018324;28;20117;-69
2021/01/05 00:28:18;;;;;;;27.85;14.40;;;1.40;99.90;;;;;;5017450;28;20185;-69
2021/01/05 00:30:44;;;;;;;24.15;13.77;;;1.30;99.90;;;;;;5017103;28;20034;-69
2021/01/05 00:33:10;;;;;;;22.05;13.57;;;1.30;99.90;;;;;;5038491;28;20052;-69
2021/01/05 00:35:38;;;;;;;23.05;13.82;;;1.40;99.90;;;;;;5037838;28;20026;-68
2021/01/05 00:38:09;;;;;;;23.63;13.32;;;1.40;99.90;;;;;;5031856;28;20101;-69
2021/01/05 00:40:35;;;;;;;24.38;14.20;;;1.30;99.90;;;;;;5032041;28;20076;-68
2021/01/05 00:43:01;;;;;;;20.25;12.13;;;1.30;99.90;;;;;;5030897;28;20399;-69
2021/01/05 00:45:33;;;;;;;21.35;13.27;;;1.30;99.90;;;;;;5031874;28;20075;-69
2021/01/05 00:48:00;;;;;;;22.88;14.05;;;1.40;99.90;;;;;;5031740;28;20029;-68
2021/01/05 00:50:26;;;;;;;22.88;12.43;;;1.50;99.90;;;;;;5031554;28;20029;-68
2021/01/05 00:52:53;;;;;;;22.02;12.30;;;1.40;99.90;;;;;;5030693;28;20026;-68
2021/01/05 00:55:18;;;;;;;20.63;12.30;;;1.40;99.90;;;;;;5031480;28;20415;-68
2021/01/05 00:57:45;;;;;;;23.52;13.65;;;1.40;99.90;;;;;;5031360;28;20025;-68
2021/01/05 01:00:18;;;;;;;20.52;12.48;;;1.50;99.90;;;;;;5031489;28;20014;-69
2021/01/05 01:02:43;;;;;;;21.65;12.10;;;1.40;99.90;;;;;;5031013;28;20373;-68
2021/01/05 01:05:09;;;;;;;21.70;12.40;;;1.40;99.90;;;;;;5029778;28;20132;-68
2021/01/05 01:07:35;;;;;;;20.00;12.50;;;1.40;99.90;;;;;;5031470;28;20040;-69
2021/01/05 01:10:01;;;;;;;19.95;12.35;;;1.40;99.90;;;;;;5031787;28;20108;-69
2021/01/05 01:12:27;;;;;;;20.23;12.05;;;1.40;99.90;;;;;;5031134;28;20030;-69
2021/01/05 01:14:54;;;;;;;20.40;12.02;;;1.40;99.90;;;;;;5030930;28;20029;-69
2021/01/05 01:17:22;;;;;;;18.65;11.43;;;1.40;99.90;;;;;;5031500;28;20100;-69
2021/01/05 01:19:47;;;;;;;18.60;11.88;;;1.50;99.90;;;;;;5031308;28;20428;-69
2021/01/05 01:22:17;;;;;;;18.83;11.77;;;1.50;99.90;;;;;;5031269;28;20040;-68
2021/01/05 01:24:42;;;;;;;22.35;12.35;;;1.50;99.90;;;;;;5049402;28;20022;-68
2021/01/05 01:27:08;;;;;;;20.77;12.32;;;1.60;99.90;;;;;;5037848;28;20559;-68
2021/01/05 01:29:34;;;;;;;18.63;11.35;;;1.50;99.90;;;;;;5031366;28;20037;-68
2021/01/05 01:31:59;;;;;;;18.80;11.60;;;1.50;99.90;;;;;;5031910;28;20033;-68
2021/01/05 01:34:26;;;;;;;17.33;11.02;;;1.50;99.90;;;;;;5030919;28;20025;-68
2021/01/05 01:37:05;;;;;;;19.23;12.07;;;1.50;99.90;;;;;;5030981;28;20037;-68
2021/01/05 01:39:32;;;;;;;17.48;11.23;;;1.50;99.90;;;;;;5031768;28;20109;-68
2021/01/05 01:42:00;;;;;;;19.45;12.20;;;1.50;99.90;;;;;;5031749;28;20403;-68
2021/01/05 01:44:35;;;;;;;19.38;11.55;;;1.60;99.90;;;;;;5030650;28;20104;-68
2021/01/05 01:47:23;;;;;;;20.75;11.88;;;1.50;99.90;;;;;;5031204;28;20033;-68
2021/01/05 01:49:52;;;;;;;17.45;11.70;;;1.50;99.90;;;;;;5031359;28;20017;-66
2021/01/05 01:52:29;;;;;;;20.52;11.45;;;1.50;99.90;;;;;;5030905;28;20036;-69
2021/01/05 01:55:13;;;;;;;19.77;12.07;;;1.50;99.90;;;;;;5030276;28;20029;-69
2021/01/05 01:58:14;;;;;;;19.30;11.65;;;1.60;99.90;;;;;;5031410;28;20109;-70
2021/01/05 02:00:42;;;;;;;18.45;10.68;;;1.60;99.90;;;;;;5031142;28;20026;-69
2021/01/05 02:03:39;;;;;;;19.73;11.95;;;1.50;99.90;;;;;;5030335;28;20022;-68
2021/01/05 02:06:18;;;;;;;18.17;11.98;;;1.60;99.90;;;;;;5030787;28;20026;-68
2021/01/05 02:08:50;;;;;;;19.85;12.70;;;1.50;99.90;;;;;;5031032;28;20164;-68
2021/01/05 02:11:25;;;;;;;18.63;11.57;;;1.60;99.90;;;;;;5030707;28;20028;-68
2021/01/05 02:14:06;;;;;;;15.85;10.13;;;1.50;99.90;;;;;;5030510;28;20026;-69
2021/01/05 02:16:37;;;;;;;19.77;11.67;;;1.50;99.90;;;;;;5032475;28;20025;-67
2021/01/05 02:19:20;;;;;;;17.35;10.55;;;1.60;99.90;;;;;;5034498;28;20676;-69
2021/01/05 02:21:58;;;;;;;17.77;10.65;;;1.50;99.90;;;;;;5034394;28;20021;-70
2021/01/05 02:24:40;;;;;;;18.58;10.85;;;1.60;99.90;;;;;;5033677;28;20026;-70
2021/01/05 02:27:09;;;;;;;17.50;11.13;;;1.60;99.90;;;;;;5034021;28;20029;-68
2021/01/05 02:29:46;;;;;;;15.98;9.90;;;1.60;99.90;;;;;;5034173;28;20049;-69
2021/01/05 02:32:34;;;;;;;15.63;10.18;;;1.60;99.90;;;;;;5034019;28;20029;-69
2021/01/05 02:35:08;;;;;;;16.20;10.32;;;1.60;99.90;;;;;;5033064;28;20017;-69
2021/01/05 02:37:41;;;;;;;16.60;10.73;;;1.60;99.90;;;;;;5034371;28;20563;-69
2021/01/05 02:40:47;;;;;;;16.52;10.55;;;1.50;99.90;;;;;;5034395;28;20026;-72
2021/01/05 02:43:21;;;;;;;18.92;11.10;;;1.50;99.90;;;;;;5037524;28;20025;-69
2021/01/05 02:46:08;;;;;;;15.90;10.10;;;1.60;99.90;;;;;;5034677;28;20028;-69
2021/01/05 02:48:59;;;;;;;15.77;10.20;;;1.60;99.90;;;;;;5034619;28;20026;-68
2021/01/05 02:51:35;;;;;;;16.52;10.38;;;1.60;99.90;;;;;;5034247;28;20025;-68
2021/01/05 02:54:13;;;;;;;16.80;9.77;;;1.60;99.90;;;;;;5033840;28;20026;-68
2021/01/05 02:57:10;;;;;;;15.93;9.10;;;1.60;99.90;;;;;;5033653;28;20083;-68
2021/01/05 03:00:13;;;;;;;14.77;10.05;;;1.60;99.90;;;;;;5033762;28;20085;-69
2021/01/05 03:03:14;;;;;;;13.63;9.57;;;1.60;99.90;;;;;;5032956;28;20028;-68
2021/01/05 03:05:45;;;;;;;15.40;9.63;;;1.60;99.90;;;;;;5033829;28;20574;-69
2021/01/05 03:08:11;;;;;;;16.33;10.35;;;1.60;99.90;;;;;;5033578;28;20073;-68
2021/01/05 03:11:01;;;;;;;15.82;9.52;;;1.70;99.90;;;;;;5033651;28;20030;-69
2021/01/05 03:13:35;;;;;;;15.15;10.15;;;1.70;99.90;;;;;;5032245;28;20033;-69
2021/01/05 03:16:14;;;;;;;16.52;9.65;;;1.70;99.90;;;;;;5033503;28;20075;-68
2021/01/05 03:19:08;;;;;;;17.17;10.88;;;1.80;99.90;;;;;;5033290;28;20526;-68
2021/01/05 03:21:38;;;;;;;17.10;10.68;;;1.70;99.90;;;;;;5033248;28;20105;-68
2021/01/05 03:24:06;;;;;;;16.98;11.18;;;1.60;99.90;;;;;;5032557;28;20112;-69
2021/01/05 03:26:38;;;;;;;15.38;10.35;;;1.60;99.90;;;;;;5033014;28;20491;-70
2021/01/05 03:29:04;;;;;;;15.93;9.70;;;1.70;99.90;;;;;;5032775;28;20384;-69
2021/01/05 03:31:52;;;;;;;17.40;10.38;;;1.70;99.90;;;;;;5031560;28;20365;-68
2021/01/05 03:34:19;;;;;;;16.65;10.48;;;1.70;99.90;;;;;;5032340;28;20021;-69
2021/01/05 03:36:45;;;;;;;19.52;11.23;;;1.70;99.90;;;;;;5033226;28;20025;-69
2021/01/05 03:39:11;;;;;;;15.32;9.23;;;1.70;99.90;;;;;;5032697;28;20048;-70
2021/01/05 03:41:37;;;;;;;16.38;9.85;;;1.60;99.90;;;;;;5032526;28;20484;-69
2021/01/05 03:44:04;;;;;;;16.50;9.90;;;1.70;99.90;;;;;;5031602;28;20041;-69
2021/01/05 03:46:30;;;;;;;15.10;10.30;;;1.60;99.90;;;;;;5031796;28;20021;-69
2021/01/05 03:48:56;;;;;;;16.63;10.60;;;1.60;99.90;;;;;;5031599;28;20025;-68
2021/01/05 03:51:21;;;;;;;17.25;10.85;;;1.60;99.90;;;;;;5031693;28;20407;-69
2021/01/05 03:53:47;;;;;;;18.38;10.55;;;1.60;99.90;;;;;;5039987;28;20022;-69
2021/01/05 03:56:13;;;;;;;17.67;11.32;;;1.60;99.90;;;;;;5074514;28;20025;-70
2021/01/05 03:58:39;;;;;;;14.27;10.30;;;1.70;99.90;;;;;;5062583;28;20021;-70
2021/01/05 04:01:04;;;;;;;19.23;11.05;;;1.70;99.90;;;;;;5030125;28;20057;-69
2021/01/05 04:03:30;;;;;;;17.88;11.20;;;1.70;99.90;;;;;;5029134;28;20057;-69
2021/01/05 04:05:56;;;;;;;17.17;11.50;;;1.70;99.90;;;;;;5031124;28;20080;-69
2021/01/05 04:08:22;;;;;;;18.25;10.57;;;1.70;99.90;;;;;;5031156;28;20100;-69
2021/01/05 04:10:47;;;;;;;15.18;10.68;;;1.70;99.90;;;;;;5029704;28;20029;-69
2021/01/05 04:13:13;;;;;;;15.90;9.88;;;1.70;99.90;;;;;;5029900;28;20033;-69
2021/01/05 04:15:39;;;;;;;19.75;10.63;;;1.70;99.90;;;;;;5030871;28;20021;-70
2021/01/05 04:18:05;;;;;;;17.30;10.68;;;1.70;99.90;;;;;;5030964;28;20068;-69
2021/01/05 04:20:31;;;;;;;18.63;11.00;;;1.70;99.90;;;;;;5029499;28;20035;-69
2021/01/05 04:22:58;;;;;;;18.30;11.82;;;1.70;99.90;;;;;;5030339;28;20044;-70
2021/01/05 04:25:24;;;;;;;18.33;11.10;;;1.70;99.90;;;;;;5030834;28;20036;-68
2021/01/05 04:27:51;;;;;;;17.15;11.02;;;1.70;99.90;;;;;;5030579;28;20025;-70
2021/01/05 04:30:27;;;;;;;18.88;11.43;;;1.70;99.90;;;;;;5030791;28;20026;-70
2021/01/05 04:32:55;;;;;;;18.65;12.05;;;1.70;99.90;;;;;;5030094;28;20032;-70
2021/01/05 04:35:22;;;;;;;21.77;12.60;;;1.80;99.90;;;;;;5030727;28;20472;-70
2021/01/05 04:37:49;;;;;;;21.40;12.00;;;1.80;99.90;;;;;;5030691;28;20089;-70
2021/01/05 04:40:37;;;;;;;21.42;11.23;;;1.80;99.90;;;;;;5030069;28;20156;-70
2021/01/05 04:43:36;;;;;;;19.88;11.60;;;1.70;99.90;;;;;;5029765;28;20031;-70
2021/01/05 04:46:19;;;;;;;17.30;11.55;;;1.70;99.90;;;;;;5030616;28;20484;-69
2021/01/05 04:48:54;;;;;;;19.23;12.43;;;1.70;99.90;;;;;;5030286;28;20044;-69
2021/01/05 04:51:22;;;;;;;23.13;12.50;;;1.70;99.90;;;;;;5030745;28;20407;-69
2021/01/05 04:54:07;;;;;;;21.63;12.90;;;1.70;99.90;;;;;;5030096;28;20021;-69
2021/01/05 04:57:05;;;;;;;24.08;12.23;;;1.70;99.90;;;;;;5030550;28;20021;-70
2021/01/05 04:59:44;;;;;;;21.90;13.15;;;1.60;99.90;;;;;;5030828;28;20036;-69
2021/01/05 05:02:49;;;;;;;23.48;12.85;;;1.70;99.90;;;;;;5041559;28;20025;-68
2021/01/05 05:05:23;;;;;;;22.45;13.02;;;1.70;99.90;;;;;;5028367;28;20205;-69
2021/01/05 05:08:11;;;;;;;22.73;12.60;;;1.70;99.90;;;;;;5050307;28;20068;-70
2021/01/05 05:11:11;;;;;;;24.38;14.13;;;1.70;99.90;;;;;;5050524;28;20503;-68
2021/01/05 05:14:00;;;;;;;21.08;12.77;;;1.70;99.90;;;;;;5034185;28;20098;-68
2021/01/05 05:16:29;;;;;;;21.10;12.50;;;1.70;99.90;;;;;;5029974;28;20414;-70
2021/01/05 05:19:00;;;;;;;23.23;12.77;;;1.70;99.90;;;;;;5030151;28;20053;-68
2021/01/05 05:21:34;;;;;;;25.10;13.85;;;1.70;99.90;;;;;;5030253;28;20025;-69
2021/01/05 05:24:30;;;;;;;24.00;13.60;;;1.70;99.90;;;;;;5029121;28;20078;-69
2021/01/05 05:27:09;;;;;;;22.48;13.95;;;1.60;99.90;;;;;;5029973;28;20500;-69
2021/01/05 05:29:46;;;;;;;23.42;13.48;;;1.60;99.90;;;;;;5030110;28;20121;-68
2021/01/05 05:32:36;;;;;;;22.80;13.35;;;1.70;99.90;;;;;;5028608;28;20035;-68
2021/01/05 05:35:04;;;;;;;23.75;12.93;;;1.70;99.90;;;;;;5029925;28;20506;-68
2021/01/05 05:37:59;;;;;;;23.65;14.27;;;1.70;99.90;;;;;;5030129;28;20079;-68
2021/01/05 05:40:50;;;;;;;23.23;13.48;;;1.60;99.90;;;;;;5026737;28;20087;-68
2021/01/05 05:43:39;;;;;;;27.50;14.07;;;1.60;99.90;;;;;;5029338;28;20032;-68
2021/01/05 05:46:24;;;;;;;25.77;15.65;;;1.70;99.90;;;;;;5029571;28;20508;-69
2021/01/05 05:48:52;;;;;;;25.08;14.93;;;1.60;99.90;;;;;;5031057;28;20034;-68
2021/01/05 05:51:30;;;;;;;26.80;14.90;;;1.70;99.90;;;;;;5032153;28;20040;-68
2021/01/05 05:54:13;;;;;;;26.58;15.13;;;1.70;99.90;;;;;;5034002;28;20097;-68
2021/01/05 05:56:51;;;;;;;28.73;16.23;;;1.70;99.90;;;;;;5034260;28;20036;-68
2021/01/05 05:59:20;;;;;;;28.73;16.60;;;1.70;99.90;;;;;;5033555;28;20029;-70
2021/01/05 06:01:46;;;;;;;32.55;16.77;;;1.70;99.90;;;;;;5033400;28;20494;-68
2021/01/05 06:04:13;;;;;;;28.00;16.23;;;1.70;99.90;;;;;;5031762;28;20033;-68
2021/01/05 06:06:41;;;;;;;30.08;16.73;;;1.80;99.90;;;;;;5026321;28;20037;-70
2021/01/05 06:09:06;;;;;;;35.58;17.60;;;1.70;99.90;;;;;;5037031;28;20038;-70
2021/01/05 06:11:37;;;;;;;28.45;16.80;;;1.80;99.90;;;;;;5032930;28;20030;-68
2021/01/05 06:14:04;;;;;;;31.80;16.63;;;1.80;99.90;;;;;;5031857;28;20033;-69
2021/01/05 06:16:34;;;;;;;32.95;16.92;;;1.80;99.90;;;;;;5032920;28;20125;-68
2021/01/05 06:19:00;;;;;;;30.20;16.77;;;1.80;99.90;;;;;;5033699;28;20538;-69
2021/01/05 06:21:25;;;;;;;27.75;16.02;;;1.80;99.90;;;;;;5034331;28;20033;-71
2021/01/05 06:23:51;;;;;;;29.15;16.60;;;1.70;99.90;;;;;;5033359;28;20067;-71
2021/01/05 06:26:19;;;;;;;31.73;16.55;;;1.70;99.90;;;;;;5033660;28;20104;-70
2021/01/05 06:28:47;;;;;;;29.38;17.08;;;1.70;99.90;;;;;;5033347;28;20033;-70
2021/01/05 06:31:12;;;;;;;29.50;16.00;;;1.70;99.90;;;;;;5033719;28;20065;-70
2021/01/05 06:33:38;;;;;;;30.20;16.17;;;1.70;99.90;;;;;;5033138;28;20420;-68
2021/01/05 06:36:04;;;;;;;27.70;16.20;;;1.70;99.90;;;;;;5033691;28;20418;-69
2021/01/05 06:38:30;;;;;;;27.85;15.75;;;1.70;99.90;;;;;;5033172;28;20017;-68
2021/01/05 06:40:55;;;;;;;30.20;15.88;;;1.70;99.90;;;;;;5033623;28;20028;-68
2021/01/05 06:43:21;;;;;;;28.20;15.77;;;1.60;99.90;;;;;;5032784;28;20029;-69
2021/01/05 06:45:47;;;;;;;28.98;16.27;;;1.60;99.90;;;;;;5033441;28;20434;-69
2021/01/05 06:48:12;;;;;;;27.73;15.52;;;1.70;99.90;;;;;;5032894;28;20100;-69
2021/01/05 06:50:38;;;;;;;38.67;18.00;;;1.70;99.90;;;;;;5033772;28;20025;-69
2021/01/05 06:53:04;;;;;;;36.47;20.15;;;1.80;99.90;;;;;;5032622;28;20064;-68
2021/01/05 06:55:30;;;;;;;36.92;19.42;;;1.80;99.90;;;;;;5033520;28;20424;-68
2021/01/05 06:57:56;;;;;;;33.88;19.27;;;1.70;99.90;;;;;;5033031;28;20021;-68
2021/01/05 07:00:24;;;;;;;33.90;18.83;;;1.70;99.90;;;;;;5033277;28;20026;-69
2021/01/05 07:02:51;;;;;;;39.60;20.17;;;1.70;99.90;;;;;;5031905;28;20054;-68
2021/01/05 07:05:18;;;;;;;39.42;20.90;;;1.80;99.90;;;;;;5033314;28;20507;-68
2021/01/05 07:07:44;;;;;;;41.53;22.20;;;1.70;99.90;;;;;;5033312;28;20026;-70
2021/01/05 07:10:11;;;;;;;39.80;20.73;;;1.70;99.90;;;;;;5031929;28;20028;-67
2021/01/05 07:12:37;;;;;;;39.22;21.00;;;1.80;99.90;;;;;;5032303;28;20052;-68
2021/01/05 07:15:08;;;;;;;42.60;21.98;;;1.80;99.90;;;;;;5032517;28;20495;-67
2021/01/05 07:17:34;;;;;;;42.20;22.65;;;1.70;99.90;;;;;;5034805;28;20026;-68
2021/01/05 07:20:00;;;;;;;42.28;21.08;;;1.80;99.90;;;;;;5034328;28;20108;-73
2021/01/05 07:22:26;;;;;;;40.92;22.35;;;1.80;99.90;;;;;;5037961;28;20104;-74
2021/01/05 07:24:52;;;;;;;45.53;22.15;;;1.90;99.90;;;;;;5043171;28;20017;-75
2021/01/05 07:27:17;;;;;;;39.20;21.15;;;1.90;99.90;;;;;;5042040;28;20028;-75
2021/01/05 07:29:43;;;;;;;42.85;22.27;;;1.90;99.90;;;;;;5042209;28;20033;-76
2021/01/05 07:32:09;;;;;;;42.95;21.83;;;2.00;99.90;;;;;;5038444;28;20033;-76
2021/01/05 07:34:37;;;;;;;39.58;20.42;;;1.90;99.90;;;;;;5037085;28;20099;-73
2021/01/05 07:37:07;;;;;;;38.47;20.48;;;2.00;99.90;;;;;;5030225;28;20030;-74
2021/01/05 07:39:33;;;;;;;41.95;21.30;;;2.00;99.90;;;;;;5039120;28;20018;-74
2021/01/05 07:42:20;;;;;;;42.00;21.35;;;2.00;99.90;;;;;;5055456;28;20025;-74
2021/01/05 07:44:48;;;;;;;42.25;22.27;;;2.00;99.90;;;;;;5037773;28;20032;-70
2021/01/05 07:47:15;;;;;;;43.42;22.60;;;2.10;99.90;;;;;;5032812;28;20446;-73
2021/01/05 07:49:41;;;;;;;45.88;23.33;;;2.00;99.90;;;;;;5031449;28;20128;-72
2021/01/05 07:52:35;;;;;;;43.67;22.35;;;2.60;99.90;;;;;;5032775;28;20078;-72
2021/01/05 07:55:08;;;;;;;42.63;21.75;;;2.60;99.90;;;;;;5030720;28;20514;-70
2021/01/05 07:57:34;;;;;;;39.80;21.70;;;2.60;99.90;;;;;;5032175;28;20425;-70
2021/01/05 07:59:59;;;;;;;41.05;23.30;;;2.40;99.90;;;;;;5032454;28;20029;-68
2021/01/05 08:02:25;;;;;;;42.22;22.55;;;2.30;99.90;;;;;;5032574;28;20029;-68
2021/01/05 08:04:51;;;;;;;40.50;21.48;;;2.30;99.90;;;;;;5031128;28;20024;-70
2021/01/05 08:07:17;;;;;;;41.42;21.08;;;2.10;99.90;;;;;;5029249;28;20029;-67
2021/01/05 08:09:43;;;;;;;48.83;23.55;;;2.10;99.90;;;;;;5022578;28;20032;-68
2021/01/05 08:12:15;;;;;;;43.92;22.65;;;2.10;99.90;;;;;;5012277;28;20053;-68
2021/01/05 08:14:41;;;;;;;45.45;22.13;;;2.00;99.90;;;;;;5010721;28;20123;-68
2021/01/05 08:17:07;;;;;;;42.40;22.42;;;2.10;99.90;;;;;;5012602;28;20030;-67
2021/01/05 08:19:33;;;;;;;46.88;23.65;;;2.10;99.90;;;;;;5031296;28;20028;-69
2021/01/05 08:21:58;;;;;;;47.63;24.52;;;2.20;99.90;;;;;;5032190;28;20026;-67
2021/01/05 08:24:24;;;;;;;46.10;23.95;;;2.20;99.90;;;;;;5031270;28;20379;-69
2021/01/05 08:26:49;;;;;;;45.38;23.02;;;2.30;99.90;;;;;;5031943;28;20487;-68
2021/01/05 08:29:15;;;;;;;44.92;22.92;;;2.10;99.90;;;;;;5032015;28;20809;-69
2021/01/05 08:31:43;;;;;;;42.05;22.05;;;2.10;99.90;;;;;;5032880;28;20096;-69
2021/01/05 08:34:09;;;;;;;42.97;22.50;;;2.10;99.90;;;;;;5043326;28;20689;-68
2021/01/05 08:36:35;;;;;;;41.10;21.85;;;2.10;99.90;;;;;;5043130;28;20024;-68
2021/01/05 08:39:03;;;;;;;48.03;24.08;;;2.10;99.90;;;;;;5051594;28;20021;-69
2021/01/05 08:41:28;;;;;;;44.97;22.98;;;2.20;99.90;;;;;;5041524;28;20040;-68
2021/01/05 08:43:55;;;;;;;46.35;23.15;;;2.10;99.90;;;;;;5038034;28;20029;-67
2021/01/05 08:46:26;;;;;;;43.97;22.95;;;2.20;99.90;;;;;;5031701;28;20091;-68
2021/01/05 08:48:52;;;;;;;43.47;22.27;;;2.20;99.90;;;;;;5030982;28;20033;-68
2021/01/05 08:51:19;;;;;;;48.85;23.75;;;2.10;99.90;;;;;;5044600;28;20036;-67
2021/01/05 08:53:49;;;;;;;45.33;23.85;;;2.10;99.90;;;;;;5050659;28;20104;-68
2021/01/05 08:56:24;;;;;;;41.35;22.00;;;2.10;99.90;;;;;;5050966;28;20032;-66
2021/01/05 08:58:50;;;;;;;46.80;23.75;;;2.00;99.90;;;;;;5051018;28;20066;-70
2021/01/05 09:01:16;;;;;;;42.28;23.23;;;2.00;99.90;;;;;;5046416;28;20057;-70
2021/01/05 09:03:42;;;;;;;45.65;24.25;;;2.00;99.90;;;;;;5030503;28;20545;-70
2021/01/05 09:06:09;;;;;;;46.72;24.13;;;2.00;99.90;;;;;;5031154;28;20030;-69
2021/01/05 09:08:36;;;;;;;48.03;25.15;;;2.10;99.90;;;;;;5031242;28;20036;-71
2021/01/05 09:11:04;;;;;;;44.90;23.48;;;2.00;99.90;;;;;;5031729;28;20773;-69
2021/01/05 09:13:30;;;;;;;50.08;25.20;;;2.10;99.90;;;;;;5030093;28;20054;-70
2021/01/05 09:15:56;;;;;;;45.28;23.73;;;2.10;99.90;;;;;;5030964;28;20022;-70
2021/01/05 09:18:22;;;;;;;47.40;22.95;;;2.10;99.90;;;;;;5031580;28;20018;-70
2021/01/05 09:20:52;;;;;;;44.90;22.50;;;2.10;99.90;;;;;;5031351;28;20083;-70
2021/01/05 09:23:22;;;;;;;43.75;21.80;;;2.10;99.90;;;;;;5030395;28;20029;-71
2021/01/05 09:25:52;;;;;;;45.45;22.50;;;2.00;99.90;;;;;;5031200;28;20018;-70
2021/01/05 09:28:19;;;;;;;44.63;23.48;;;2.10;99.90;;;;;;5034882;28;20022;-70
2021/01/05 09:30:48;;;;;;;42.53;23.58;;;2.00;99.90;;;;;;5035281;28;20061;-70
2021/01/05 09:33:15;;;;;;;47.50;23.55;;;2.10;99.90;;;;;;5032977;28;20075;-70
2021/01/05 09:35:41;;;;;;;47.15;23.77;;;2.20;99.90;;;;;;5017450;28;20030;-70
2021/01/05 09:38:09;;;;;;;44.15;23.70;;;2.10;99.90;;;;;;5015279;28;20104;-71
2021/01/05 09:40:37;;;;;;;43.28;24.35;;;2.20;99.90;;;;;;5033965;28;20108;-71
2021/01/05 09:43:05;;;;;;;47.15;23.75;;;2.10;99.90;;;;;;5034519;28;20109;-69
2021/01/05 09:45:30;;;;;;;49.95;26.10;;;2.20;99.90;;;;;;5035172;28;20021;-69
2021/01/05 09:48:09;;;;;;;45.85;23.88;;;2.30;99.90;;;;;;5035049;28;20100;-69
2021/01/05 09:50:38;;;;;;;47.00;24.40;;;2.30;99.90;;;;;;5034878;28;20029;-70
2021/01/05 09:53:03;;;;;;;47.42;24.20;;;2.40;99.90;;;;;;5033940;28;20112;-69
2021/01/05 09:55:31;;;;;;;52.00;24.80;;;2.30;99.90;;;;;;5034618;28;20064;-70
2021/01/05 09:57:56;;;;;;;42.40;22.55;;;2.40;99.90;;;;;;5034253;28;20022;-68
2021/01/05 10:00:22;;;;;;;45.53;24.45;;;2.40;99.90;;;;;;5034796;28;20048;-70
2021/01/05 10:02:48;;;;;;;47.92;23.83;;;2.30;99.90;;;;;;5032421;28;20426;-72
2021/01/05 10:05:14;;;;;;;45.25;23.77;;;2.40;99.90;;;;;;5033154;28;20026;-69
2021/01/05 10:07:40;;;;;;;46.53;24.67;;;2.40;99.90;;;;;;5034548;28;20072;-68
2021/01/05 10:10:13;;;;;;;50.92;26.88;;;2.40;99.90;;;;;;5034751;28;20034;-69
2021/01/05 10:12:39;;;;;;;49.15;28.35;;;2.40;99.90;;;;;;5033202;28;20072;-74
2021/01/05 10:15:05;;;;;;;49.13;25.02;;;2.40;99.90;;;;;;5033990;28;20061;-72
2021/01/05 10:17:31;;;;;;;46.30;24.30;;;2.40;99.90;;;;;;5034265;28;20025;-71
2021/01/05 10:19:56;;;;;;;50.88;25.30;;;2.40;99.90;;;;;;5033498;28;20037;-71
2021/01/05 10:22:22;;;;;;;44.55;23.48;;;2.40;99.90;;;;;;5034518;28;20412;-71
2021/01/05 10:24:49;;;;;;;44.80;24.48;;;2.40;99.90;;;;;;5033764;28;20029;-69
2021/01/05 10:27:14;;;;;;;47.85;24.70;;;2.50;99.90;;;;;;5034757;28;20495;-73
2021/01/05 10:29:40;;;;;;;46.00;24.55;;;2.40;99.90;;;;;;5034297;28;20052;-67
2021/01/05 10:32:05;;;;;;;45.53;24.20;;;2.40;99.90;;;;;;5034298;28;20025;-68
2021/01/05 10:34:31;;;;;;;52.13;25.85;;;2.40;99.90;;;;;;5033422;28;20096;-71
2021/01/05 10:36:59;;;;;;;50.28;27.17;;;2.40;99.90;;;;;;5034911;28;20433;-74
2021/01/05 10:39:26;;;;;;;53.95;27.38;;;2.40;99.90;;;;;;5032729;28;20017;-75
2021/01/05 10:41:52;;;;;;;52.35;26.33;;;2.50;99.90;;;;;;5035982;28;20045;-74
2021/01/05 10:44:20;;;;;;;50.90;25.75;;;2.40;99.90;;;;;;5034944;28;20025;-73
2021/01/05 10:46:45;;;;;;;53.92;27.45;;;2.40;99.90;;;;;;5035239;28;20029;-74
2021/01/05 10:49:12;;;;;;;50.38;26.80;;;2.40;99.90;;;;;;5034040;28;20368;-73
2021/01/05 10:52:05;;;;;;;48.45;26.17;;;2.40;99.90;;;;;;5034744;28;20026;-73
2021/01/05 10:54:30;;;;;;;;;;;2.40;99.90;;;;;;5030845;28;20100;-72
2021/01/05 10:57:05;;;;;;;55.13;27.05;;;2.50;99.90;;;;;;5035108;28;19905;-75
2021/01/05 10:59:32;;;;;;;50.80;26.33;;;2.40;99.90;;;;;;5034453;28;20088;-72
2021/01/05 11:02:09;;;;;;;45.40;26.08;;;2.50;99.90;;;;;;5034337;28;20026;-73
2021/01/05 11:04:36;;;;;;;55.65;24.98;;;2.50;99.90;;;;;;5036821;28;20030;-74
2021/01/05 11:07:05;;;;;;;51.47;26.50;;;2.40;99.90;;;;;;5043033;28;20116;-76
2021/01/05 11:09:31;;;;;;;53.38;27.88;;;2.50;99.90;;;;;;5037212;28;20029;-73
2021/01/05 11:12:02;;;;;;;56.38;26.38;;;2.60;99.90;;;;;;5034920;28;20036;-75
2021/01/05 11:14:28;;;;;;;51.45;26.20;;;2.60;99.90;;;;;;5035097;28;20029;-75
2021/01/05 11:16:54;;;;;;;45.65;23.98;;;2.50;99.90;;;;;;5040790;28;20026;-75
2021/01/05 11:19:21;;;;;;;45.08;23.58;;;2.40;99.90;;;;;;5043858;28;20025;-74
2021/01/05 11:21:59;;;;;;;38.05;21.75;;;2.40;99.90;;;;;;5044497;28;20029;-74
2021/01/05 11:24:26;;;;;;;42.80;23.65;;;2.40;99.90;;;;;;5049042;28;20044;-76
2021/01/05 11:26:53;;;;;;;50.33;23.52;;;2.50;99.90;;;;;;5053126;28;20025;-78
2021/01/05 11:29:21;;;;;;;52.70;27.20;;;2.40;99.90;;;;;;5048729;28;20024;-75
2021/01/05 11:31:57;;;;;;;53.95;27.42;;;2.50;99.90;;;;;;5055591;28;20021;-75
2021/01/05 11:34:23;;;;;;;54.42;27.52;;;2.70;99.90;;;;;;5044419;28;20018;-77
2021/01/05 11:36:49;;;;;;;53.08;26.35;;;2.70;99.90;;;;;;5060679;28;20047;-71
2021/01/05 11:39:16;;;;;;;53.85;27.27;;;2.60;99.90;;;;;;5064665;28;20025;-69
2021/01/05 11:41:45;;;;;;;50.85;25.50;;;2.70;99.90;;;;;;5068089;28;20084;-69
2021/01/05 11:44:14;;;;;;;55.13;27.90;;;2.80;99.90;;;;;;5068398;28;20028;-71
2021/01/05 11:46:40;;;;;;;51.53;26.38;;;2.80;99.90;;;;;;5066720;28;20036;-67
2021/01/05 11:49:05;;;;;;;50.35;26.27;;;2.90;99.90;;;;;;5036251;28;20029;-67
2021/01/05 11:51:34;;;;;;;47.33;25.23;;;2.90;99.90;;;;;;5033022;28;20029;-69
2021/01/05 11:54:00;;;;;;;50.17;26.20;;;2.80;99.90;;;;;;5048343;23;20044;-69
2021/01/05 11:56:28;;;;;;;46.15;24.92;;;2.80;99.90;;;;;;5040217;28;20391;-69
2021/01/05 11:58:55;;;;;;;43.63;23.27;;;2.90;99.90;;;;;;5033079;28;20028;-68
2021/01/05 12:01:21;;;;;;;44.53;24.15;;;2.70;99.90;;;;;;5037111;28;20071;-68
2021/01/05 12:03:47;;;;;;;44.35;25.40;;;2.70;99.90;;;;;;5032979;28;20045;-67
2021/01/05 12:06:23;;;;;;;42.70;23.13;;;2.30;99.90;;;;;;5033124;28;20040;-68
2021/01/05 12:08:50;;;;;;;45.17;24.05;;;2.20;99.90;;;;;;5032163;28;20609;-70
2021/01/05 12:11:29;;;;;;;48.70;24.38;;;2.20;99.90;;;;;;5030474;28;20026;-68
2021/01/05 12:13:57;;;;;;;40.70;23.83;;;2.30;99.90;;;;;;5031775;28;20045;-70
2021/01/05 12:16:25;;;;;;;48.10;25.27;;;2.30;99.90;;;;;;5031949;28;20065;-68
2021/01/05 12:18:52;;;;;;;46.70;25.75;;;2.20;99.90;;;;;;5032030;28;20471;-68
2021/01/05 12:21:27;;;;;;;48.17;25.05;;;2.30;99.90;;;;;;5032010;28;20033;-68
2021/01/05 12:23:54;;;;;;;45.53;23.83;;;2.40;99.90;;;;;;5042351;28;20032;-68
2021/01/05 12:26:28;;;;;;;50.60;25.10;;;2.30;99.90;;;;;;5051839;28;20714;-68
2021/01/05 12:28:53;;;;;;;50.60;26.13;;;2.30;99.90;;;;;;5050410;28;20692;-68
2021/01/05 12:31:20;;;;;;;54.10;26.95;;;2.40;99.90;;;;;;5050311;28;20025;-68
2021/01/05 12:33:46;;;;;;;50.75;26.95;;;2.40;99.90;;;;;;5050965;28;20471;-68
2021/01/05 12:36:11;;;;;;;48.03;26.27;;;2.50;99.90;;;;;;5051303;28;20036;-76
2021/01/05 12:38:37;;;;;;;49.35;27.80;;;2.50;99.90;;;;;;5051343;28;20454;-75
2021/01/05 12:41:03;;;;;;;47.63;25.67;;;2.60;99.90;;;;;;5051450;28;20035;-73
2021/01/05 12:43:29;;;;;;;53.50;27.67;;;2.60;99.90;;;;;;5050647;28;20043;-74
2021/01/05 12:45:55;;;;;;;47.78;24.85;;;2.70;99.90;;;;;;5051310;28;20029;-71
2021/01/05 12:48:21;;;;;;;56.47;27.55;;;2.70;99.90;;;;;;5050015;28;20565;-72
2021/01/05 12:50:47;;;;;;;50.83;27.38;;;2.80;99.90;;;;;;5051203;28;20036;-72
2021/01/05 12:53:13;;;;;;;52.33;27.92;;;2.80;99.90;;;;;;5050335;28;20048;-72
2021/01/05 12:55:39;;;;;;;56.67;26.75;;;2.70;99.90;;;;;;5050931;28;20025;-72